sensor_id;sensor_type;location;lat;lon;timestamp;pressure;altitude;pressure_sealevel;temperature;humidity
21781;BME280;52576;53.614;9.894;2024-03-06T00:01:33;101834.41;;;4.05;85.34
21781;BME280;52576;53.614;9.894;2024-03-06T00:03:36;101839.59;;;4.05;85.54
21781;BME280;52576;53.614;9.894;2024-03-06T00:05:39;101846.47;;;4.06;85.62
21781;BME280;52576;53.614;9.894;2024-03-06T00:07:43;101842.16;;;4.06;85.85
21781;BME280;52576;53.614;9.894;2024-03-06T00:09:46;101843.00;;;4.07;85.63
21781;BME280;52576;53.614;9.894;2024-03-06T00:11:50;101844.72;;;4.08;85.86
21781;BME280;52576;53.614;9.894;2024-03-06T00:13:52;101849.94;;;4.06;85.85
21781;BME280;52576;53.614;9.894;2024-03-06T00:15:56;101846.44;;;4.07;86.03
21781;BME280;52576;53.614;9.894;2024-03-06T00:17:59;101849.03;;;4.07;86.06
21781;BME280;52576;53.614;9.894;2024-03-06T00:20:03;101849.91;;;4.08;85.84
21781;BME280;52576;53.614;9.894;2024-03-06T00:22:07;101858.56;;;4.07;85.97
21781;BME280;52576;53.614;9.894;2024-03-06T00:24:12;101848.19;;;4.07;86.05
21781;BME280;52576;53.614;9.894;2024-03-06T00:26:15;101849.97;;;4.05;86.21
21781;BME280;52576;53.614;9.894;2024-03-06T00:28:19;101860.34;;;4.05;86.06
21781;BME280;52576;53.614;9.894;2024-03-06T00:30:22;101849.97;;;4.05;86.26
21781;BME280;52576;53.614;9.894;2024-03-06T00:32:27;101862.03;;;4.06;86.36
21781;BME280;52576;53.614;9.894;2024-03-06T00:34:31;101860.31;;;4.06;86.42
21781;BME280;52576;53.614;9.894;2024-03-06T00:36:34;101855.97;;;4.07;86.32
21781;BME280;52576;53.614;9.894;2024-03-06T00:38:37;101856.84;;;4.06;86.28
21781;BME280;52576;53.614;9.894;2024-03-06T00:40:42;101863.75;;;4.07;86.22
21781;BME280;52576;53.614;9.894;2024-03-06T00:42:45;101863.75;;;4.07;86.38
21781;BME280;52576;53.614;9.894;2024-03-06T00:44:48;101867.22;;;4.06;86.05
21781;BME280;52576;53.614;9.894;2024-03-06T00:46:51;101866.38;;;4.05;86.25
21781;BME280;52576;53.614;9.894;2024-03-06T00:48:54;101866.38;;;4.05;86.46
21781;BME280;52576;53.614;9.894;2024-03-06T00:50:57;101869.84;;;4.06;86.40
21781;BME280;52576;53.614;9.894;2024-03-06T00:53:00;101866.38;;;4.05;86.22
21781;BME280;52576;53.614;9.894;2024-03-06T00:55:04;101870.72;;;4.05;86.30
21781;BME280;52576;53.614;9.894;2024-03-06T00:57:09;101875.91;;;4.05;86.29
21781;BME280;52576;53.614;9.894;2024-03-06T00:59:12;101867.31;;;4.03;86.29
21781;BME280;52576;53.614;9.894;2024-03-06T01:01:16;101877.69;;;4.03;86.51
21781;BME280;52576;53.614;9.894;2024-03-06T01:03:19;101887.19;;;4.02;86.55
21781;BME280;52576;53.614;9.894;2024-03-06T01:05:22;101882.88;;;4.03;86.81
21781;BME280;52576;53.614;9.894;2024-03-06T01:07:26;101875.91;;;4.05;86.68
21781;BME280;52576;53.614;9.894;2024-03-06T01:09:29;101879.31;;;4.07;86.65
21781;BME280;52576;53.614;9.894;2024-03-06T01:11:32;101882.75;;;4.09;86.79
21781;BME280;52576;53.614;9.894;2024-03-06T01:13:36;101884.44;;;4.10;86.88
21781;BME280;52576;53.614;9.894;2024-03-06T01:15:40;101893.06;;;4.12;86.78
21781;BME280;52576;53.614;9.894;2024-03-06T01:17:43;101883.53;;;4.13;86.71
21781;BME280;52576;53.614;9.894;2024-03-06T01:19:46;101896.47;;;4.14;86.68
21781;BME280;52576;53.614;9.894;2024-03-06T01:21:49;101896.47;;;4.14;86.57
21781;BME280;52576;53.614;9.894;2024-03-06T01:23:52;101895.59;;;4.15;86.53
21781;BME280;52576;53.614;9.894;2024-03-06T01:25:56;101891.28;;;4.14;86.52
21781;BME280;52576;53.614;9.894;2024-03-06T01:27:59;101896.47;;;4.14;86.71
21781;BME280;52576;53.614;9.894;2024-03-06T01:30:04;101904.25;;;4.14;86.44
21781;BME280;52576;53.614;9.894;2024-03-06T01:32:07;101899.94;;;4.13;86.69
21781;BME280;52576;53.614;9.894;2024-03-06T01:34:12;101909.50;;;4.11;86.86
21781;BME280;52576;53.614;9.894;2024-03-06T01:36:15;101903.47;;;4.11;86.81
21781;BME280;52576;53.614;9.894;2024-03-06T01:38:18;101910.38;;;4.10;86.82
21781;BME280;52576;53.614;9.894;2024-03-06T01:40:21;101908.69;;;4.09;86.81
21781;BME280;52576;53.614;9.894;2024-03-06T01:42:24;101908.69;;;4.09;86.97
21781;BME280;52576;53.614;9.894;2024-03-06T01:44:27;101911.28;;;4.09;86.89
21781;BME280;52576;53.614;9.894;2024-03-06T01:46:32;101914.75;;;4.08;86.91
21781;BME280;52576;53.614;9.894;2024-03-06T01:48:35;101915.63;;;4.07;87.10
21781;BME280;52576;53.614;9.894;2024-03-06T01:50:37;101919.97;;;4.06;86.94
21781;BME280;52576;53.614;9.894;2024-03-06T01:52:41;101913.94;;;4.06;87.08
21781;BME280;52576;53.614;9.894;2024-03-06T01:54:47;101919.19;;;4.03;87.08
21781;BME280;52576;53.614;9.894;2024-03-06T01:56:52;101922.66;;;4.02;87.01
21781;BME280;52576;53.614;9.894;2024-03-06T01:58:56;101921.84;;;4.00;86.98
21781;BME280;52576;53.614;9.894;2024-03-06T02:01:00;101917.53;;;3.99;87.18
21781;BME280;52576;53.614;9.894;2024-03-06T02:03:05;101919.31;;;3.97;87.13
21781;BME280;52576;53.614;9.894;2024-03-06T02:05:08;101926.25;;;3.95;87.20
21781;BME280;52576;53.614;9.894;2024-03-06T02:07:13;101923.69;;;3.93;87.16
21781;BME280;52576;53.614;9.894;2024-03-06T02:09:17;101916.84;;;3.91;87.39
21781;BME280;52576;53.614;9.894;2024-03-06T02:11:21;101924.63;;;3.91;87.13
21781;BME280;52576;53.614;9.894;2024-03-06T02:13:24;101926.41;;;3.89;87.30
21781;BME280;52576;53.614;9.894;2024-03-06T02:15:27;101929.06;;;3.86;87.00
21781;BME280;52576;53.614;9.894;2024-03-06T02:17:29;101927.38;;;3.85;87.33
21781;BME280;52576;53.614;9.894;2024-03-06T02:19:43;101918.72;;;3.84;87.27
21781;BME280;52576;53.614;9.894;2024-03-06T02:21:48;101916.16;;;3.83;87.40
21781;BME280;52576;53.614;9.894;2024-03-06T02:23:52;101923.94;;;3.83;87.30
21781;BME280;52576;53.614;9.894;2024-03-06T02:25:56;101917.03;;;3.82;87.23
21781;BME280;52576;53.614;9.894;2024-03-06T02:27:59;101924.84;;;3.80;87.29
21781;BME280;52576;53.614;9.894;2024-03-06T02:30:02;101928.34;;;3.78;87.28
21781;BME280;52576;53.614;9.894;2024-03-06T02:32:06;101926.66;;;3.77;87.46
21781;BME280;52576;53.614;9.894;2024-03-06T02:34:10;101923.19;;;3.78;87.57
21781;BME280;52576;53.614;9.894;2024-03-06T02:36:12;101922.34;;;3.75;87.64
21781;BME280;52576;53.614;9.894;2024-03-06T02:38:17;101920.63;;;3.74;87.50
21781;BME280;52576;53.614;9.894;2024-03-06T02:40:20;101926.72;;;3.73;87.47
21781;BME280;52576;53.614;9.894;2024-03-06T02:42:23;101934.50;;;3.73;87.41
21781;BME280;52576;53.614;9.894;2024-03-06T02:44:26;101930.19;;;3.72;87.48
21781;BME280;52576;53.614;9.894;2024-03-06T02:46:30;101925.00;;;3.72;87.58
21781;BME280;52576;53.614;9.894;2024-03-06T02:48:33;101931.06;;;3.71;87.65
21781;BME280;52576;53.614;9.894;2024-03-06T02:50:36;101930.25;;;3.69;87.52
21781;BME280;52576;53.614;9.894;2024-03-06T02:52:39;101940.63;;;3.69;87.69
21781;BME280;52576;53.614;9.894;2024-03-06T02:54:43;101937.19;;;3.67;87.50
21781;BME280;52576;53.614;9.894;2024-03-06T02:56:47;101932.91;;;3.66;87.62
21781;BME280;52576;53.614;9.894;2024-03-06T02:58:50;101931.22;;;3.64;87.54
21781;BME280;52576;53.614;9.894;2024-03-06T03:00:52;101933.88;;;3.62;87.63
21781;BME280;52576;53.614;9.894;2024-03-06T03:02:55;101932.16;;;3.61;87.73
21781;BME280;52576;53.614;9.894;2024-03-06T03:04:58;101939.94;;;3.61;87.65
21781;BME280;52576;53.614;9.894;2024-03-06T03:07:01;101933.00;;;3.62;87.66
21781;BME280;52576;53.614;9.894;2024-03-06T03:09:03;101933.00;;;3.62;87.75
21781;BME280;52576;53.614;9.894;2024-03-06T03:11:07;101937.34;;;3.61;87.72
21781;BME280;52576;53.614;9.894;2024-03-06T03:13:12;101932.16;;;3.61;87.48
21781;BME280;52576;53.614;9.894;2024-03-06T03:15:14;101934.78;;;3.60;87.55
21781;BME280;52576;53.614;9.894;2024-03-06T03:17:18;101934.78;;;3.60;87.51
21781;BME280;52576;53.614;9.894;2024-03-06T03:19:22;101935.69;;;3.57;87.74
21781;BME280;52576;53.614;9.894;2024-03-06T03:21:25;101935.72;;;3.56;87.48
21781;BME280;52576;53.614;9.894;2024-03-06T03:23:28;101934.03;;;3.53;87.49
21781;BME280;52576;53.614;9.894;2024-03-06T03:25:31;101941.00;;;3.50;87.23
21781;BME280;52576;53.614;9.894;2024-03-06T03:27:37;101939.38;;;3.44;87.48
21781;BME280;52576;53.614;9.894;2024-03-06T03:29:41;101938.59;;;3.39;87.71
21781;BME280;52576;53.614;9.894;2024-03-06T03:31:45;101931.81;;;3.33;87.39
21781;BME280;52576;53.614;9.894;2024-03-06T03:33:48;101939.69;;;3.27;87.38
21781;BME280;52576;53.614;9.894;2024-03-06T03:35:50;101946.66;;;3.24;87.47
21781;BME280;52576;53.614;9.894;2024-03-06T03:37:53;101953.66;;;3.19;87.63
21781;BME280;52576;53.614;9.894;2024-03-06T03:39:57;101950.25;;;3.17;87.61
21781;BME280;52576;53.614;9.894;2024-03-06T03:42:00;101952.91;;;3.12;87.89
21781;BME280;52576;53.614;9.894;2024-03-06T03:44:05;101949.53;;;3.09;87.68
21781;BME280;52576;53.614;9.894;2024-03-06T03:46:08;101956.50;;;3.05;87.74
21781;BME280;52576;53.614;9.894;2024-03-06T03:48:11;101950.50;;;3.01;87.87
21781;BME280;52576;53.614;9.894;2024-03-06T03:50:15;101954.03;;;2.97;88.10
21781;BME280;52576;53.614;9.894;2024-03-06T03:52:17;101955.78;;;2.95;88.40
21781;BME280;52576;53.614;9.894;2024-03-06T03:54:20;101957.53;;;2.93;88.28
21781;BME280;52576;53.614;9.894;2024-03-06T03:56:23;101959.31;;;2.90;88.28
21781;BME280;52576;53.614;9.894;2024-03-06T03:58:26;101962.81;;;2.87;88.34
21781;BME280;52576;53.614;9.894;2024-03-06T04:00:30;101958.59;;;2.83;88.35
21781;BME280;52576;53.614;9.894;2024-03-06T04:02:32;101956.91;;;2.81;88.52
21781;BME280;52576;53.614;9.894;2024-03-06T04:04:35;101959.53;;;2.78;88.66
21781;BME280;52576;53.614;9.894;2024-03-06T04:06:38;101959.59;;;2.73;88.58
21781;BME280;52576;53.614;9.894;2024-03-06T04:08:42;101959.66;;;2.70;88.77
21781;BME280;52576;53.614;9.894;2024-03-06T04:10:44;101964.00;;;2.66;88.82
21781;BME280;52576;53.614;9.894;2024-03-06T04:12:47;101963.19;;;2.63;89.02
21781;BME280;52576;53.614;9.894;2024-03-06T04:14:50;101958.91;;;2.60;89.09
21781;BME280;52576;53.614;9.894;2024-03-06T04:16:55;101965.03;;;2.56;89.15
21781;BME280;52576;53.614;9.894;2024-03-06T04:18:58;101972.84;;;2.53;89.35
21781;BME280;52576;53.614;9.894;2024-03-06T04:21:03;101966.88;;;2.50;89.26
21781;BME280;52576;53.614;9.894;2024-03-06T04:23:06;101967.75;;;2.47;89.40
21781;BME280;52576;53.614;9.894;2024-03-06T04:25:09;101972.13;;;2.44;89.50
21781;BME280;52576;53.614;9.894;2024-03-06T04:27:12;101982.50;;;2.41;89.59
21781;BME280;52576;53.614;9.894;2024-03-06T04:29:14;101972.19;;;2.37;89.65
21781;BME280;52576;53.614;9.894;2024-03-06T04:31:18;101971.34;;;2.35;89.75
21781;BME280;52576;53.614;9.894;2024-03-06T04:33:22;101974.03;;;2.32;89.90
21781;BME280;52576;53.614;9.894;2024-03-06T04:35:25;101973.19;;;2.30;89.92
21781;BME280;52576;53.614;9.894;2024-03-06T04:37:27;101971.47;;;2.28;90.04
21781;BME280;52576;53.614;9.894;2024-03-06T04:39:32;101970.66;;;2.24;90.10
21781;BME280;52576;53.614;9.894;2024-03-06T04:41:35;101974.13;;;2.23;90.03
21781;BME280;52576;53.614;9.894;2024-03-06T04:43:38;101969.00;;;2.20;90.18
21781;BME280;52576;53.614;9.894;2024-03-06T04:45:41;101975.91;;;2.18;90.34
21781;BME280;52576;53.614;9.894;2024-03-06T04:47:44;101977.66;;;2.16;90.22
21781;BME280;52576;53.614;9.894;2024-03-06T04:49:49;101973.38;;;2.14;90.38
21781;BME280;52576;53.614;9.894;2024-03-06T04:51:52;101973.41;;;2.11;90.29
21781;BME280;52576;53.614;9.894;2024-03-06T04:53:55;101971.72;;;2.08;90.53
21781;BME280;52576;53.614;9.894;2024-03-06T04:55:58;101975.25;;;2.04;90.45
21781;BME280;52576;53.614;9.894;2024-03-06T04:58:01;101973.56;;;2.01;90.35
21781;BME280;52576;53.614;9.894;2024-03-06T05:00:06;101978.75;;;2.00;90.51
21781;BME280;52576;53.614;9.894;2024-03-06T05:02:10;101973.59;;;1.97;90.68
21781;BME280;52576;53.614;9.894;2024-03-06T05:04:14;101981.38;;;1.94;90.75
21781;BME280;52576;53.614;9.894;2024-03-06T05:06:37;101986.59;;;1.91;90.80
21781;BME280;52576;53.614;9.894;2024-03-06T05:08:57;101995.25;;;1.87;91.01
21781;BME280;52576;53.614;9.894;2024-03-06T05:11:18;102000.47;;;1.84;90.89
21781;BME280;52576;53.614;9.894;2024-03-06T05:13:39;102002.22;;;1.82;90.94
21781;BME280;52576;53.614;9.894;2024-03-06T05:15:59;102003.13;;;1.78;91.08
21781;BME280;52576;53.614;9.894;2024-03-06T05:18:20;102010.91;;;1.75;90.96
21781;BME280;52576;53.614;9.894;2024-03-06T05:20:40;102004.91;;;1.71;91.04
21781;BME280;52576;53.614;9.894;2024-03-06T05:23:04;102019.59;;;1.67;91.10
21781;BME280;52576;53.614;9.894;2024-03-06T05:25:24;102019.63;;;1.64;91.27
21781;BME280;52576;53.614;9.894;2024-03-06T05:27:45;102020.53;;;1.60;91.29
21781;BME280;52576;53.614;9.894;2024-03-06T05:30:06;102028.31;;;1.57;91.58
21781;BME280;52576;53.614;9.894;2024-03-06T05:32:28;102026.66;;;1.53;91.45
21781;BME280;52576;53.614;9.894;2024-03-06T05:34:49;102039.59;;;1.50;91.66
21781;BME280;52576;53.614;9.894;2024-03-06T05:37:09;102041.31;;;1.48;91.70
21781;BME280;52576;53.614;9.894;2024-03-06T05:39:31;102045.66;;;1.43;91.61
21781;BME280;52576;53.614;9.894;2024-03-06T05:41:54;102050.88;;;1.40;91.62
21781;BME280;52576;53.614;9.894;2024-03-06T05:44:15;102056.91;;;1.36;91.67
21781;BME280;52576;53.614;9.894;2024-03-06T05:46:35;102057.81;;;1.32;92.00
21781;BME280;52576;53.614;9.894;2024-03-06T05:48:56;102060.44;;;1.29;92.03
21781;BME280;52576;53.614;9.894;2024-03-06T05:51:17;102068.22;;;1.26;92.25
21781;BME280;52576;53.614;9.894;2024-03-06T05:53:37;102080.28;;;1.24;92.15
21781;BME280;52576;53.614;9.894;2024-03-06T05:56:01;102078.59;;;1.20;92.45
21781;BME280;52576;53.614;9.894;2024-03-06T05:58:21;102084.63;;;1.17;92.49
21781;BME280;52576;53.614;9.894;2024-03-06T06:00:24;102085.50;;;1.15;92.40
21781;BME280;52576;53.614;9.894;2024-03-06T06:02:27;102089.81;;;1.13;92.55
21781;BME280;52576;53.614;9.894;2024-03-06T06:04:30;102090.69;;;1.12;92.54
21781;BME280;52576;53.614;9.894;2024-03-06T06:06:42;102093.28;;;1.10;92.61
21781;BME280;52576;53.614;9.894;2024-03-06T06:08:45;102098.44;;;1.09;92.63
21781;BME280;52576;53.614;9.894;2024-03-06T06:10:48;102096.72;;;1.08;92.64
21781;BME280;52576;53.614;9.894;2024-03-06T06:12:54;102098.47;;;1.06;92.65
21781;BME280;52576;53.614;9.894;2024-03-06T06:14:57;102099.31;;;1.05;92.62
21781;BME280;52576;53.614;9.894;2024-03-06T06:17:00;102100.22;;;1.04;92.72
21781;BME280;52576;53.614;9.894;2024-03-06T06:19:05;102101.94;;;1.03;92.77
21781;BME280;52576;53.614;9.894;2024-03-06T06:21:07;102102.81;;;1.04;92.93
21781;BME280;52576;53.614;9.894;2024-03-06T06:23:10;102104.50;;;1.05;93.12
21781;BME280;52576;53.614;9.894;2024-03-06T06:25:13;102105.34;;;1.05;93.25
21781;BME280;52576;53.614;9.894;2024-03-06T06:27:18;102111.38;;;1.06;93.18
21781;BME280;52576;53.614;9.894;2024-03-06T06:29:22;102107.91;;;1.07;93.29
21781;BME280;52576;53.614;9.894;2024-03-06T06:31:25;102120.81;;;1.08;93.40
21781;BME280;52576;53.614;9.894;2024-03-06T06:33:28;102123.41;;;1.10;93.46
21781;BME280;52576;53.614;9.894;2024-03-06T06:35:31;102128.56;;;1.10;93.47
21781;BME280;52576;53.614;9.894;2024-03-06T06:37:34;102123.38;;;1.11;93.57
21781;BME280;52576;53.614;9.894;2024-03-06T06:39:37;102125.09;;;1.14;93.56
21781;BME280;52576;53.614;9.894;2024-03-06T06:41:40;102138.00;;;1.15;93.60
21781;BME280;52576;53.614;9.894;2024-03-06T06:43:43;102133.69;;;1.19;93.60
21781;BME280;52576;53.614;9.894;2024-03-06T06:45:47;102140.53;;;1.23;93.73
21781;BME280;52576;53.614;9.894;2024-03-06T06:47:54;102145.69;;;1.27;93.84
21781;BME280;52576;53.614;9.894;2024-03-06T06:49:58;102150.84;;;1.29;93.79
21781;BME280;52576;53.614;9.894;2024-03-06T06:52:00;102157.69;;;1.33;94.02
21781;BME280;52576;53.614;9.894;2024-03-06T06:54:03;102162.81;;;1.36;93.91
21781;BME280;52576;53.614;9.894;2024-03-06T06:56:06;102165.41;;;1.39;94.02
21781;BME280;52576;53.614;9.894;2024-03-06T06:58:09;102165.38;;;1.44;93.79
21781;BME280;52576;53.614;9.894;2024-03-06T07:00:13;102164.47;;;1.49;94.21
21781;BME280;52576;53.614;9.894;2024-03-06T07:02:21;102173.06;;;1.54;94.11
21781;BME280;52576;53.614;9.894;2024-03-06T07:04:24;102166.09;;;1.59;94.19
21781;BME280;52576;53.614;9.894;2024-03-06T07:06:27;102169.50;;;1.64;94.23
21781;BME280;52576;53.614;9.894;2024-03-06T07:08:30;102166.88;;;1.70;94.44
21781;BME280;52576;53.614;9.894;2024-03-06T07:10:33;102173.75;;;1.76;94.41
21781;BME280;52576;53.614;9.894;2024-03-06T07:12:37;102169.34;;;1.83;94.25
21781;BME280;52576;53.614;9.894;2024-03-06T07:14:40;102174.47;;;1.89;94.27
21781;BME280;52576;53.614;9.894;2024-03-06T07:16:44;102173.56;;;1.96;94.36
21781;BME280;52576;53.614;9.894;2024-03-06T07:18:48;102186.44;;;2.03;94.31
21781;BME280;52576;53.614;9.894;2024-03-06T07:20:51;102179.47;;;2.10;94.11
21781;BME280;52576;53.614;9.894;2024-03-06T07:22:56;102178.53;;;2.17;94.11
21781;BME280;52576;53.614;9.894;2024-03-06T07:24:59;102179.34;;;2.22;94.10
21781;BME280;52576;53.614;9.894;2024-03-06T07:27:01;102176.69;;;2.30;93.72
21781;BME280;52576;53.614;9.894;2024-03-06T07:29:04;102184.34;;;2.37;93.75
21781;BME280;52576;53.614;9.894;2024-03-06T07:31:14;102183.44;;;2.45;93.66
21781;BME280;52576;53.614;9.894;2024-03-06T07:33:17;102184.22;;;2.53;93.60
21781;BME280;52576;53.614;9.894;2024-03-06T07:35:22;102189.34;;;2.59;93.38
21781;BME280;52576;53.614;9.894;2024-03-06T07:37:25;102190.94;;;2.66;93.15
21781;BME280;52576;53.614;9.894;2024-03-06T07:39:27;102199.50;;;2.72;93.02
21781;BME280;52576;53.614;9.894;2024-03-06T07:41:33;102194.25;;;2.80;92.73
21781;BME280;52576;53.614;9.894;2024-03-06T07:43:35;102190.69;;;2.87;92.42
21781;BME280;52576;53.614;9.894;2024-03-06T07:45:39;102197.50;;;2.94;92.26
21781;BME280;52576;53.614;9.894;2024-03-06T07:47:42;102199.16;;;3.01;92.14
21781;BME280;52576;53.614;9.894;2024-03-06T07:49:47;102191.31;;;3.08;91.70
21781;BME280;52576;53.614;9.894;2024-03-06T07:51:53;102192.94;;;3.13;91.45
21781;BME280;52576;53.614;9.894;2024-03-06T07:53:58;102192.88;;;3.19;91.13
21781;BME280;52576;53.614;9.894;2024-03-06T07:56:01;102195.38;;;3.25;90.55
21781;BME280;52576;53.614;9.894;2024-03-06T07:58:05;102192.72;;;3.31;90.28
21781;BME280;52576;53.614;9.894;2024-03-06T08:00:10;102197.81;;;3.37;89.57
21781;BME280;52576;53.614;9.894;2024-03-06T08:02:17;102196.84;;;3.43;89.40
21781;BME280;52576;53.614;9.894;2024-03-06T08:04:20;102208.84;;;3.50;89.13
21781;BME280;52576;53.614;9.894;2024-03-06T08:06:23;102204.44;;;3.57;88.78
21781;BME280;52576;53.614;9.894;2024-03-06T08:08:28;102206.03;;;3.64;88.50
21781;BME280;52576;53.614;9.894;2024-03-06T08:10:31;102214.56;;;3.72;88.19
21781;BME280;52576;53.614;9.894;2024-03-06T08:12:35;102212.75;;;3.79;87.95
21781;BME280;52576;53.614;9.894;2024-03-06T08:14:37;102217.81;;;3.86;87.36
21781;BME280;52576;53.614;9.894;2024-03-06T08:16:41;102219.41;;;3.93;87.19
21781;BME280;52576;53.614;9.894;2024-03-06T08:18:44;102226.22;;;4.00;86.41
21781;BME280;52576;53.614;9.894;2024-03-06T08:20:47;102218.34;;;4.05;85.85
21781;BME280;52576;53.614;9.894;2024-03-06T08:22:50;102224.38;;;4.07;85.24
21781;BME280;52576;53.614;9.894;2024-03-06T08:24:55;102226.94;;;4.10;84.59
21781;BME280;52576;53.614;9.894;2024-03-06T08:26:57;102228.63;;;4.13;84.30
21781;BME280;52576;53.614;9.894;2024-03-06T08:29:00;102237.19;;;4.16;83.92
21781;BME280;52576;53.614;9.894;2024-03-06T08:31:12;102233.66;;;4.20;83.51
21781;BME280;52576;53.614;9.894;2024-03-06T08:33:15;102236.19;;;4.23;83.08
21781;BME280;52576;53.614;9.894;2024-03-06T08:35:21;102242.22;;;4.25;82.95
21781;BME280;52576;53.614;9.894;2024-03-06T08:37:28;102247.31;;;4.31;82.81
21781;BME280;52576;53.614;9.894;2024-03-06T08:39:31;102240.31;;;4.36;82.53
21781;BME280;52576;53.614;9.894;2024-03-06T08:41:36;102248.81;;;4.44;82.23
21781;BME280;52576;53.614;9.894;2024-03-06T08:43:41;102254.72;;;4.53;82.14
21781;BME280;52576;53.614;9.894;2024-03-06T08:45:48;102251.13;;;4.60;81.90
21781;BME280;52576;53.614;9.894;2024-03-06T08:47:51;102256.19;;;4.67;81.56
21781;BME280;52576;53.614;9.894;2024-03-06T08:49:56;102256.84;;;4.77;81.22
21781;BME280;52576;53.614;9.894;2024-03-06T08:51:58;102265.38;;;4.85;80.88
21781;BME280;52576;53.614;9.894;2024-03-06T08:54:01;102254.88;;;4.91;80.35
21781;BME280;52576;53.614;9.894;2024-03-06T08:56:05;102261.66;;;4.97;79.91
21781;BME280;52576;53.614;9.894;2024-03-06T08:58:10;102260.69;;;5.02;79.68
21781;BME280;52576;53.614;9.894;2024-03-06T09:00:16;102261.41;;;5.10;79.35
21781;BME280;52576;53.614;9.894;2024-03-06T09:02:19;102263.84;;;5.18;78.97
21781;BME280;52576;53.614;9.894;2024-03-06T09:04:23;102266.28;;;5.26;78.57
21781;BME280;52576;53.614;9.894;2024-03-06T09:06:27;102269.63;;;5.31;77.79
21781;BME280;52576;53.614;9.894;2024-03-06T09:08:31;102271.28;;;5.35;77.33
21781;BME280;52576;53.614;9.894;2024-03-06T09:10:33;102274.69;;;5.38;76.63
21781;BME280;52576;53.614;9.894;2024-03-06T09:12:36;102278.06;;;5.42;76.25
21781;BME280;52576;53.614;9.894;2024-03-06T09:14:41;102279.78;;;5.43;75.78
21781;BME280;52576;53.614;9.894;2024-03-06T09:16:44;102285.00;;;5.43;75.62
21781;BME280;52576;53.614;9.894;2024-03-06T09:18:46;102280.69;;;5.42;75.05
21781;BME280;52576;53.614;9.894;2024-03-06T09:20:49;102278.97;;;5.41;74.80
21781;BME280;52576;53.614;9.894;2024-03-06T09:22:51;102283.28;;;5.42;74.51
21781;BME280;52576;53.614;9.894;2024-03-06T09:24:56;102283.22;;;5.45;74.14
21781;BME280;52576;53.614;9.894;2024-03-06T09:26:58;102289.16;;;5.50;73.99
21781;BME280;52576;53.614;9.894;2024-03-06T09:29:02;102289.91;;;5.55;73.70
21781;BME280;52576;53.614;9.894;2024-03-06T09:31:07;102289.78;;;5.61;73.53
21781;BME280;52576;53.614;9.894;2024-03-06T09:33:10;102292.28;;;5.66;73.32
21781;BME280;52576;53.614;9.894;2024-03-06T09:35:13;102291.38;;;5.68;72.96
21781;BME280;52576;53.614;9.894;2024-03-06T09:37:19;102305.09;;;5.73;72.50
21781;BME280;52576;53.614;9.894;2024-03-06T09:39:22;102299.91;;;5.73;72.44
21781;BME280;52576;53.614;9.894;2024-03-06T09:41:25;102307.63;;;5.76;72.47
21781;BME280;52576;53.614;9.894;2024-03-06T09:43:28;102302.38;;;5.79;72.23
21781;BME280;52576;53.614;9.894;2024-03-06T09:45:33;102308.38;;;5.83;72.18
21781;BME280;52576;53.614;9.894;2024-03-06T09:47:39;102309.19;;;5.85;71.90
21781;BME280;52576;53.614;9.894;2024-03-06T09:49:42;102299.53;;;5.92;72.14
21781;BME280;52576;53.614;9.894;2024-03-06T09:51:47;102301.09;;;5.99;71.43
21781;BME280;52576;53.614;9.894;2024-03-06T09:53:51;102300.94;;;6.05;71.26
21781;BME280;52576;53.614;9.894;2024-03-06T09:55:56;102300.75;;;6.14;71.35
21781;BME280;52576;53.614;9.894;2024-03-06T09:58:01;102300.41;;;6.26;70.99
21781;BME280;52576;53.614;9.894;2024-03-06T10:00:08;102306.22;;;6.37;70.63
21781;BME280;52576;53.614;9.894;2024-03-06T10:02:19;102309.44;;;6.49;70.21
21781;BME280;52576;53.614;9.894;2024-03-06T10:04:32;102301.28;;;6.61;69.56
21781;BME280;52576;53.614;9.894;2024-03-06T10:06:36;102303.66;;;6.70;68.82
21781;BME280;52576;53.614;9.894;2024-03-06T10:08:42;102307.81;;;6.77;68.16
21781;BME280;52576;53.614;9.894;2024-03-06T10:10:48;102312.00;;;6.82;67.76
21781;BME280;52576;53.614;9.894;2024-03-06T10:12:52;102311.00;;;6.88;67.66
21781;BME280;52576;53.614;9.894;2024-03-06T10:14:54;102318.69;;;6.93;67.63
21781;BME280;52576;53.614;9.894;2024-03-06T10:17:00;102313.34;;;6.97;66.90
21781;BME280;52576;53.614;9.894;2024-03-06T10:19:15;102312.47;;;6.98;66.81
21781;BME280;52576;53.614;9.894;2024-03-06T10:21:33;102315.78;;;7.03;66.66
21781;BME280;52576;53.614;9.894;2024-03-06T10:23:37;102312.25;;;7.04;66.11
21781;BME280;52576;53.614;9.894;2024-03-06T10:25:42;102320.91;;;7.06;65.93
21781;BME280;52576;53.614;9.894;2024-03-06T10:27:46;102316.50;;;7.08;66.01
21781;BME280;52576;53.614;9.894;2024-03-06T10:30:00;102322.44;;;7.13;66.12
21781;BME280;52576;53.614;9.894;2024-03-06T10:32:07;102317.06;;;7.20;65.95
21781;BME280;52576;53.614;9.894;2024-03-06T10:34:10;102322.91;;;7.28;65.36
21781;BME280;52576;53.614;9.894;2024-03-06T10:36:13;102324.44;;;7.35;64.89
21781;BME280;52576;53.614;9.894;2024-03-06T10:38:19;102322.56;;;7.40;64.44
21781;BME280;52576;53.614;9.894;2024-03-06T10:40:22;102321.63;;;7.42;64.16
21781;BME280;52576;53.614;9.894;2024-03-06T10:42:28;102320.66;;;7.46;63.91
21781;BME280;52576;53.614;9.894;2024-03-06T10:44:34;102320.66;;;7.46;63.15
21781;BME280;52576;53.614;9.894;2024-03-06T10:46:37;102323.38;;;7.42;63.06
21781;BME280;52576;53.614;9.894;2024-03-06T10:48:41;102318.16;;;7.42;63.34
21781;BME280;52576;53.614;9.894;2024-03-06T10:50:47;102325.00;;;7.46;63.41
21781;BME280;52576;53.614;9.894;2024-03-06T10:52:53;102321.34;;;7.53;63.33
21781;BME280;52576;53.614;9.894;2024-03-06T10:54:58;102320.22;;;7.60;63.09
21781;BME280;52576;53.614;9.894;2024-03-06T10:57:02;102314.03;;;7.64;62.58
21781;BME280;52576;53.614;9.894;2024-03-06T10:59:06;102314.91;;;7.63;62.48
21781;BME280;52576;53.614;9.894;2024-03-06T11:01:10;102315.81;;;7.62;63.00
21781;BME280;52576;53.614;9.894;2024-03-06T11:03:15;102324.47;;;7.64;62.91